Strona główna
METAR-TAF:

METAR-TAF

Lotnisko :

Berlin, New Hampshire, Stany Zjednoczone

Szerokość geograficzna: 44-34-34N, Długość geograficzna: 071-10-43W, wysokość: 353 m

Aktualna obserwacja pogody

Raport powstał 15 minut temu, godzina 06:52 UTC
Cisza
Temperatura -2°C
Wilgotność 93%
Ciśnienie 1007 hPa
Widzialność: 11.3 km
Zachmurzenie całkowite na wysokości 2500 ft
niezidentyfikowany opad

METAR: KBML 240652Z AUTO 00000KT 7SM UP OVC025 M02/M03 A2974 RMK AO2 UPB0556E32B52FZRAE0556B32E52 SLP089 P0001 I1001 T10171028

czas: 02:07 (07:07 UTC)


TAF: brakujący

Obserwacja i prognoza pogody dla ponad 4000 lotnisk (raport METAR i TAF).

Dostępne stacje oznaczono żółtymi i czerwonymi punktami na mapie.

Najedź kursorem aby zobaczyć nazwę stacji.

Kliknij aby zobaczyć obserwacje i prognozy pogody.

Aby zmienić mapę: kliknij na zielony przycisk z czarnym krzyżykiem, aby powiększyć; na zielony przycisk z myślnikiem, aby pomniejszyć; na zielone strzałki, aby przejść do map sąsiednich.


METAR-TAF: